Terminal Aerodrome Forecast
Issued by NWS Grand Forks, ND

Home | Current Version | Previous Version | Graphics & Text | Print | Product List | Glossary On
Versions: 1 2 3 4 5 6 7 8 9 10 11 12 13 14
000
FTUS43 KFGF 211700
TAFFAR
TAF
KFAR 211738Z 2118/2218 13012KT P6SM SCT025 SCT250
      TEMPO 2118/2119 BKN025
     FM220200 06008KT P6SM TSRA BKN050CB
     FM220700 36011KT P6SM BKN025=

USA.gov is the U.S. government's official web portal to all federal, state and local government web resources and services.